Time;durP1;ratioP1;P1;durP2;ratioP2;P2;SDS_P1;SDS_P2;PMS_P1;PMS_P2;Temp;Humidity;BMP_temperature;BMP_pressure;BME280_temperature;BME280_humidity;BME280_pressure;Samples;Min_cycle;Max_cycle;Signal;HPM_P1;HPM_P2
2021/12/01 00:01:19;;;;;;;7.40;2.60;;;;;;;7.75;100.00;98739.25;4994511;28;20266;-76
2021/12/01 00:03:45;;;;;;;7.85;3.10;;;;;;;7.77;100.00;98734.84;4995046;28;20026;-77
2021/12/01 00:06:10;;;;;;;7.05;2.55;;;;;;;7.72;100.00;98732.44;4995566;28;20027;-78
2021/12/01 00:08:36;;;;;;;6.75;2.60;;;;;;;7.69;100.00;98731.72;4994932;28;20529;-76
2021/12/01 00:11:02;;;;;;;6.35;2.70;;;;;;;7.66;100.00;98722.25;4995513;28;20054;-77
2021/12/01 00:13:28;;;;;;;7.22;2.67;;;;;;;7.65;100.00;98731.00;4995283;28;20065;-77
2021/12/01 00:15:55;;;;;;;7.18;3.05;;;;;;;7.62;100.00;98725.06;4993828;28;20393;-76
2021/12/01 00:18:20;;;;;;;;;;;;;;;7.58;100.00;98715.69;4994851;28;20449;-78
2021/12/01 00:20:46;;;;;;;6.00;2.33;;;;;;;7.56;100.00;98709.69;4994282;28;19996;-75
2021/12/01 00:23:12;;;;;;;5.55;2.33;;;;;;;7.57;100.00;98701.81;4994342;28;20064;-77
2021/12/01 00:25:39;;;;;;;5.50;2.08;;;;;;;7.57;100.00;98704.41;4994365;28;20038;-76
2021/12/01 00:28:07;;;;;;;5.95;2.28;;;;;;;7.51;100.00;98689.03;4993853;28;20031;-78
2021/12/01 00:30:33;;;;;;;4.65;2.00;;;;;;;7.55;100.00;98693.22;4994047;28;20030;-76
2021/12/01 00:32:58;;;;;;;6.95;2.38;;;;;;;7.58;100.00;98668.81;4994472;28;20045;-76
2021/12/01 00:35:23;;;;;;;4.97;1.90;;;;;;;7.56;100.00;98671.47;4994406;28;20432;-77
2021/12/01 00:37:49;;;;;;;5.50;1.90;;;;;;;7.54;100.00;98669.84;4994377;28;20090;-75
2021/12/01 00:40:15;;;;;;;5.50;2.00;;;;;;;7.58;100.00;98666.22;4993962;28;20085;-77
2021/12/01 00:42:41;;;;;;;5.68;2.10;;;;;;;7.51;100.00;98655.22;4994539;28;20026;-76
2021/12/01 00:45:18;;;;;;;5.35;1.95;;;;;;;7.53;100.00;98650.78;4994529;28;20030;-76
2021/12/01 00:47:50;;;;;;;6.45;2.28;;;;;;;7.52;100.00;98651.69;4993693;28;20030;-77
2021/12/01 00:50:31;;;;;;;5.97;2.08;;;;;;;7.53;100.00;98650.78;4994320;28;20036;-76
2021/12/01 00:53:00;;;;;;;4.50;2.05;;;;;;;7.54;100.00;98625.59;4994377;28;20041;-77
2021/12/01 00:55:26;;;;;;;5.40;2.35;;;;;;;7.49;100.00;98632.75;4994347;28;20081;-79
2021/12/01 00:57:52;;;;;;;7.15;2.08;;;;;;;7.53;100.00;98627.34;4994447;28;20446;-77
2021/12/01 01:00:20;;;;;;;5.13;1.95;;;;;;;7.51;100.00;98612.72;4994393;28;20031;-77
2021/12/01 01:02:46;;;;;;;4.93;1.95;;;;;;;7.51;100.00;98605.75;4993930;28;20034;-77
2021/12/01 01:05:12;;;;;;;5.03;2.08;;;;;;;7.53;100.00;98600.47;4994452;28;20405;-77
2021/12/01 01:07:38;;;;;;;4.82;1.90;;;;;;;7.53;100.00;98606.53;4998042;28;20034;-78
2021/12/01 01:10:15;;;;;;;5.57;2.55;;;;;;;7.52;100.00;98593.56;4998263;28;20038;-78
2021/12/01 01:18:22;;;;;;;4.00;1.48;;;;;;;7.51;100.00;98581.47;4965045;28;20046;-77
2021/12/01 01:20:48;;;;;;;5.60;1.65;;;;;;;7.50;100.00;98570.22;4997373;28;20034;-76
2021/12/01 01:23:13;;;;;;;4.07;1.45;;;;;;;7.52;100.00;98557.97;4997612;28;20033;-77
2021/12/01 01:25:38;;;;;;;4.90;1.97;;;;;;;7.55;100.00;98562.19;4997793;28;20040;-76
2021/12/01 01:28:04;;;;;;;5.05;1.90;;;;;;;7.53;100.00;98548.41;4997145;28;20029;-77
2021/12/01 01:30:30;;;;;;;4.82;1.70;;;;;;;7.55;100.00;98552.63;4997531;28;20038;-76
2021/12/01 01:32:56;;;;;;;4.85;1.70;;;;;;;7.51;100.00;98558.88;4996042;28;20033;-77
2021/12/01 01:35:21;;;;;;;4.65;1.80;;;;;;;7.56;100.00;98558.69;4997257;28;20034;-77
2021/12/01 01:37:47;;;;;;;6.30;2.22;;;;;;;7.58;100.00;98551.66;4997124;28;20092;-76
2021/12/01 01:40:12;;;;;;;4.60;1.85;;;;;;;7.57;100.00;98544.75;4997407;28;20066;-76
2021/12/01 01:42:38;;;;;;;7.95;2.20;;;;;;;7.55;100.00;98541.38;4997118;28;20045;-77
2021/12/01 01:45:04;;;;;;;5.10;2.03;;;;;;;7.54;100.00;98529.28;4996876;28;20042;-76
2021/12/01 01:47:30;;;;;;;6.50;2.53;;;;;;;7.53;100.00;98538.00;4997011;28;20033;-77
2021/12/01 01:50:01;;;;;;;6.20;2.10;;;;;;;7.54;100.00;98531.88;4996713;28;20042;-77
2021/12/01 01:52:27;;;;;;;4.85;1.95;;;;;;;7.53;100.00;98506.75;4996963;28;20026;-77
2021/12/01 01:54:53;;;;;;;4.97;1.67;;;;;;;7.53;100.00;98512.81;4954179;28;20045;-76
2021/12/01 01:57:19;;;;;;;;;;;;;;;7.50;100.00;98493.88;4997471;28;20037;-77
2021/12/01 01:59:44;;;;;;;4.82;1.75;;;;;;;7.46;100.00;98498.38;4997205;28;19910;-78
2021/12/01 02:02:10;;;;;;;4.47;1.90;;;;;;;7.46;100.00;98482.75;4996894;28;20062;-76
2021/12/01 02:04:35;;;;;;;4.03;1.60;;;;;;;7.46;100.00;98482.75;4996728;28;20042;-76
2021/12/01 02:07:02;;;;;;;3.72;1.60;;;;;;;7.41;100.00;98486.50;4997072;28;20030;-76
2021/12/01 02:09:28;;;;;;;4.80;1.60;;;;;;;7.42;100.00;98472.56;4996898;28;20039;-76
2021/12/01 02:11:56;;;;;;;3.83;1.48;;;;;;;7.43;100.00;98456.84;4996805;28;20065;-77
2021/12/01 02:14:23;;;;;;;4.65;1.50;;;;;;;7.39;100.00;98491.78;4995482;28;20121;-76
2021/12/01 02:16:50;;;;;;;3.00;1.23;;;;;;;7.42;100.00;98459.56;4996269;28;20415;-76
2021/12/01 02:19:16;;;;;;;5.30;1.77;;;;;;;7.41;100.00;98460.47;4996516;28;20042;-77
2021/12/01 02:21:41;;;;;;;3.72;1.40;;;;;;;7.40;100.00;98454.41;4996075;28;20026;-77
2021/12/01 02:24:10;;;;;;;3.97;1.40;;;;;;;7.36;100.00;98445.91;4996265;28;20046;-76
2021/12/01 02:26:38;;;;;;;3.40;1.52;;;;;;;7.36;100.00;98435.50;4996200;28;20539;-76
2021/12/01 02:29:06;;;;;;;3.75;1.52;;;;;;;7.34;100.00;98431.28;4996127;28;20076;-76
2021/12/01 02:31:36;;;;;;;2.70;1.02;;;;;;;7.32;100.00;98440.91;4995739;28;20397;-76
2021/12/01 02:34:08;;;;;;;3.80;1.80;;;;;;;7.32;100.00;98413.13;4996156;28;20121;-77
2021/12/01 02:36:34;;;;;;;4.25;1.65;;;;;;;7.31;100.00;98434.84;4995996;28;20038;-75
2021/12/01 02:39:03;;;;;;;3.33;1.55;;;;;;;7.28;100.00;98432.38;4995522;28;20084;-76
2021/12/01 02:41:31;;;;;;;5.30;1.30;;;;;;;7.28;100.00;98434.16;4995993;28;20035;-75
2021/12/01 02:43:59;;;;;;;4.75;1.67;;;;;;;7.28;100.00;98414.19;4995760;28;20177;-75
2021/12/01 02:46:24;;;;;;;4.50;1.80;;;;;;;7.32;100.00;98407.06;4994539;28;20034;-76
2021/12/01 02:48:50;;;;;;;3.08;1.35;;;;;;;7.30;100.00;98408.91;4995753;28;20126;-77
2021/12/01 02:51:17;;;;;;;3.58;1.27;;;;;;;7.29;100.00;98391.59;4995520;28;20065;-76
2021/12/01 02:53:43;;;;;;;5.20;1.58;;;;;;;7.30;100.00;98394.13;4995449;28;20027;-76
2021/12/01 02:56:09;;;;;;;;;;;;;;;7.29;100.00;98389.00;4996262;28;20104;-77
2021/12/01 02:58:40;;;;;;;4.22;1.40;;;;;;;7.31;100.00;98401.03;4995512;28;20315;-76
2021/12/01 03:01:14;;;;;;;4.07;1.85;;;;;;;7.32;100.00;98402.72;4995510;28;20038;-76
2021/12/01 03:03:40;;;;;;;3.85;1.77;;;;;;;7.27;100.00;98383.84;4995650;28;20088;-77
2021/12/01 03:06:06;;;;;;;;;;;;;;;7.26;100.00;98383.94;4996038;28;20040;-76
2021/12/01 03:08:33;;;;;;;5.63;1.70;;;;;;;7.32;100.00;98368.88;4994575;28;19979;-76
2021/12/01 03:10:59;;;;;;;4.80;1.90;;;;;;;7.31;100.00;98372.41;4995791;28;20064;-77
2021/12/01 03:13:27;;;;;;;4.78;2.03;;;;;;;7.32;100.00;98358.47;4995331;28;20049;-76
2021/12/01 03:15:54;;;;;;;5.38;2.38;;;;;;;7.28;100.00;98356.94;4995608;28;20117;-76
2021/12/01 03:18:20;;;;;;;4.05;1.75;;;;;;;7.25;100.00;98346.66;4995384;28;20456;-76
2021/12/01 03:20:46;;;;;;;5.97;2.38;;;;;;;7.28;100.00;98337.88;4995217;28;20207;-77
2021/12/01 03:23:12;;;;;;;6.40;2.50;;;;;;;7.31;100.00;98329.91;4995658;28;20026;-76
2021/12/01 03:25:38;;;;;;;;;;;;;;;7.28;100.00;98330.91;4995921;28;20261;-77
2021/12/01 03:28:07;;;;;;;5.15;2.03;;;;;;;7.24;100.00;98326.75;4994966;28;19949;-77
2021/12/01 03:30:37;;;;;;;4.57;2.00;;;;;;;7.18;100.00;98321.00;4994971;28;20034;-76
2021/12/01 03:33:05;;;;;;;7.07;2.30;;;;;;;7.17;100.00;98327.09;4994828;28;20031;-76
2021/12/01 03:35:31;;;;;;;5.70;2.45;;;;;;;7.20;100.00;98326.97;4995262;28;20031;-77
2021/12/01 03:37:56;;;;;;;6.03;2.42;;;;;;;7.15;100.00;98315.94;4994554;28;20145;-77
2021/12/01 03:40:22;;;;;;;6.28;2.35;;;;;;;7.14;100.00;98315.09;4995026;28;20109;-76
2021/12/01 03:42:47;;;;;;;6.30;2.33;;;;;;;7.12;100.00;98323.88;4995021;28;20041;-75
2021/12/01 03:45:14;;;;;;;6.47;2.77;;;;;;;7.08;100.00;98293.72;4994950;28;20041;-75
2021/12/01 03:47:40;;;;;;;6.47;2.60;;;;;;;7.10;100.00;98294.47;4993421;28;20022;-75
2021/12/01 03:50:06;;;;;;;;;;;;;;;7.05;100.00;98294.72;4995049;28;20027;-76
2021/12/01 03:52:32;;;;;;;5.32;2.30;;;;;;;7.07;100.00;98285.06;4994333;28;20012;-75
2021/12/01 03:54:57;;;;;;;5.53;2.92;;;;;;;7.05;100.00;98286.91;4994568;28;20026;-77
2021/12/01 03:57:23;;;;;;;6.47;2.67;;;;;;;6.98;100.00;98281.16;4994463;28;20034;-76
2021/12/01 03:59:48;;;;;;;7.63;3.10;;;;;;;6.99;100.00;98274.19;4994226;28;20042;-76
2021/12/01 04:02:14;;;;;;;5.35;2.58;;;;;;;6.96;100.00;98266.53;4993241;28;20031;-77
2021/12/01 04:04:40;;;;;;;6.75;2.78;;;;;;;6.84;100.00;98238.47;4994233;28;20061;-76
2021/12/01 04:07:06;;;;;;;8.40;2.90;;;;;;;6.84;100.00;98247.13;4994665;28;20465;-77
2021/12/01 04:09:32;;;;;;;6.13;2.60;;;;;;;6.74;100.00;98237.22;4993346;28;20042;-76
2021/12/01 04:11:58;;;;;;;7.00;3.08;;;;;;;6.80;100.00;98224.78;4994632;28;20443;-76
2021/12/01 04:14:23;;;;;;;7.25;3.08;;;;;;;6.77;100.00;98227.53;4994222;28;20027;-77
2021/12/01 04:16:49;;;;;;;7.63;3.63;;;;;;;6.79;100.00;98215.28;4994062;28;20042;-77
2021/12/01 04:19:15;;;;;;;6.65;2.42;;;;;;;6.81;100.00;98218.66;4994553;28;20034;-76
2021/12/01 04:21:41;;;;;;;7.43;3.00;;;;;;;6.75;100.00;98195.53;4993024;28;20488;-76
2021/12/01 04:24:06;;;;;;;5.65;2.85;;;;;;;6.78;100.00;98187.59;4994190;28;20026;-76
2021/12/01 04:26:33;;;;;;;6.47;2.33;;;;;;;6.77;100.00;98177.28;4994114;28;20034;-76
2021/12/01 04:29:00;;;;;;;7.35;2.60;;;;;;;6.76;100.00;98188.59;4994006;28;20481;-76
2021/12/01 04:31:28;;;;;;;7.15;2.97;;;;;;;6.76;100.00;98202.44;4992768;28;20445;-77
2021/12/01 04:33:54;;;;;;;6.82;2.97;;;;;;;6.77;100.00;98182.47;4992708;28;20456;-77
2021/12/01 04:36:21;;;;;;;7.60;2.40;;;;;;;6.78;100.00;98184.16;4993823;28;20034;-76
2021/12/01 04:38:46;;;;;;;;;;;;;;;6.76;100.00;98186.00;4993728;28;20054;-76
2021/12/01 04:41:13;;;;;;;7.43;2.83;;;;;;;6.76;100.00;98183.41;4960183;28;20047;-76
2021/12/01 04:43:41;;;;;;;5.25;2.30;;;;;;;6.79;100.00;98176.28;4982494;28;20133;-76
2021/12/01 04:46:06;;;;;;;6.03;2.67;;;;;;;6.78;100.00;98184.16;4993678;28;20042;-76
2021/12/01 04:48:32;;;;;;;4.47;1.98;;;;;;;6.85;100.00;98188.16;4993784;28;20030;-76
2021/12/01 04:50:59;;;;;;;5.57;2.20;;;;;;;6.85;100.00;98156.97;4993904;28;20046;-78
2021/12/01 04:53:26;;;;;;;6.68;2.53;;;;;;;6.86;100.00;98135.25;4993920;28;20041;-76
2021/12/01 04:55:53;;;;;;;7.68;2.50;;;;;;;6.84;100.00;98122.31;4993561;28;20026;-76
2021/12/01 04:58:19;;;;;;;8.15;2.40;;;;;;;6.85;100.00;98144.81;4993696;28;20500;-76
2021/12/01 05:00:44;;;;;;;7.38;3.25;;;;;;;6.88;100.00;98129.06;4993917;28;20030;-77
2021/12/01 05:03:09;;;;;;;5.55;2.20;;;;;;;6.90;100.00;98140.22;4994444;28;20456;-76
2021/12/01 05:05:35;;;;;;;6.45;2.65;;;;;;;6.89;100.00;98130.75;4995116;28;20453;-77
2021/12/01 05:08:01;;;;;;;4.57;1.88;;;;;;;6.93;100.00;98119.28;4993852;28;20053;-75
2021/12/01 05:10:27;;;;;;;6.15;2.15;;;;;;;6.97;100.00;98105.22;4993623;28;20030;-75
2021/12/01 05:12:52;;;;;;;4.90;1.90;;;;;;;6.92;100.00;98103.75;4992406;28;20034;-76
2021/12/01 05:15:18;;;;;;;6.13;2.08;;;;;;;6.95;100.00;98088.00;4993445;28;20287;-76
2021/12/01 05:17:43;;;;;;;5.15;1.98;;;;;;;6.96;100.00;98094.88;4993336;28;20034;-76
2021/12/01 05:20:11;;;;;;;4.78;1.73;;;;;;;6.89;100.00;98073.53;4993430;28;20416;-76
2021/12/01 05:22:38;;;;;;;6.13;1.90;;;;;;;6.97;100.00;98067.97;4993786;28;20042;-77
2021/12/01 05:25:05;;;;;;;6.30;2.03;;;;;;;6.96;100.00;98054.13;4993748;28;20129;-76
2021/12/01 05:27:30;;;;;;;3.42;1.38;;;;;;;6.98;100.00;98054.03;4993622;28;20030;-78
2021/12/01 05:29:55;;;;;;;5.65;2.13;;;;;;;6.96;100.00;98054.13;4994155;28;20026;-76
2021/12/01 05:32:21;;;;;;;3.43;1.30;;;;;;;7.07;100.00;98043.16;5008670;28;20038;-76
2021/12/01 05:34:46;;;;;;;3.28;1.13;;;;;;;7.09;100.00;98033.50;4992422;28;20261;-76
2021/12/01 05:37:12;;;;;;;4.38;1.65;;;;;;;7.10;100.00;98021.34;4993920;28;20140;-76
2021/12/01 05:39:44;;;;;;;5.80;1.73;;;;;;;7.14;100.00;98015.06;4994245;28;20453;-77
2021/12/01 05:42:10;;;;;;;3.42;1.27;;;;;;;7.16;100.00;98021.03;4993761;28;20131;-77
2021/12/01 05:44:36;;;;;;;3.15;1.05;;;;;;;7.22;100.00;98000.75;4994068;28;20117;-77
2021/12/01 05:47:02;;;;;;;3.83;1.27;;;;;;;7.24;100.00;97990.28;4994041;28;20034;-77
2021/12/01 05:49:27;;;;;;;4.18;1.50;;;;;;;7.23;100.00;97973.81;4993938;28;20465;-77
2021/12/01 05:51:52;;;;;;;4.10;1.20;;;;;;;7.24;100.00;97982.47;4996116;28;20046;-77
2021/12/01 05:54:18;;;;;;;3.25;1.08;;;;;;;7.22;100.00;97966.94;4997289;28;20045;-76
2021/12/01 05:56:43;;;;;;;4.68;1.20;;;;;;;7.25;100.00;97945.97;4997637;28;20061;-77
2021/12/01 05:59:09;;;;;;;2.78;1.27;;;;;;;7.24;100.00;97946.03;4997875;28;20034;-77
2021/12/01 06:01:34;;;;;;;4.00;1.20;;;;;;;7.21;100.00;97948.81;4997713;28;20058;-78
2021/12/01 06:03:59;;;;;;;2.70;1.20;;;;;;;7.21;100.00;97935.78;4997646;28;20268;-77
2021/12/01 06:06:25;;;;;;;2.78;0.88;;;;;;;7.25;100.00;97930.34;4997372;28;20034;-77
2021/12/01 06:08:50;;;;;;;3.22;1.40;;;;;;;7.32;100.00;97928.28;4997611;28;20069;-77
2021/12/01 06:11:16;;;;;;;2.80;1.00;;;;;;;7.33;100.00;97928.19;4998755;28;20030;-77
2021/12/01 06:13:43;;;;;;;2.42;0.90;;;;;;;7.33;100.00;97930.78;4999086;28;20100;-77
2021/12/01 06:16:08;;;;;;;2.30;1.08;;;;;;;7.34;100.00;97924.66;4998608;28;20461;-78
2021/12/01 06:18:34;;;;;;;4.78;1.70;;;;;;;7.35;100.00;97915.94;4997628;28;20060;-77
2021/12/01 06:21:00;;;;;;;2.45;1.02;;;;;;;7.38;100.00;97904.53;4997278;28;20041;-78
2021/12/01 06:23:26;;;;;;;2.65;0.90;;;;;;;7.31;100.00;97904.00;4996855;28;20110;-77
2021/12/01 06:25:52;;;;;;;4.15;1.02;;;;;;;7.35;100.00;97907.28;4999744;28;20125;-77
2021/12/01 06:28:17;;;;;;;2.38;0.85;;;;;;;7.32;100.00;97897.03;5000473;28;20396;-77
2021/12/01 06:30:44;;;;;;;1.35;0.70;;;;;;;7.34;100.00;97893.44;4997836;28;20034;-78
2021/12/01 06:33:10;;;;;;;2.42;1.02;;;;;;;7.36;100.00;97894.19;4998739;28;20054;-78
2021/12/01 06:35:36;;;;;;;2.55;0.80;;;;;;;7.37;100.00;97875.06;4937038;28;20038;-78
2021/12/01 06:38:03;;;;;;;2.83;1.02;;;;;;;7.31;100.00;97883.19;4999186;28;20065;-78
2021/12/01 06:40:32;;;;;;;3.75;0.95;;;;;;;7.35;100.00;97874.31;5001190;28;20038;-78
2021/12/01 06:42:58;;;;;;;2.95;0.93;;;;;;;7.27;100.00;97879.06;4998520;28;20098;-78
2021/12/01 06:45:24;;;;;;;3.13;1.42;;;;;;;7.17;100.00;97869.25;4997656;28;20105;-78
2021/12/01 06:47:52;;;;;;;5.40;1.13;;;;;;;7.10;100.00;97852.28;4999914;28;20030;-80
2021/12/01 06:50:20;;;;;;;4.65;1.25;;;;;;;6.96;100.00;97866.88;4998750;28;20038;-80
2021/12/01 06:52:46;;;;;;;3.00;1.20;;;;;;;6.90;100.00;97861.16;4999253;28;20370;-78
2021/12/01 06:55:12;;;;;;;2.83;1.00;;;;;;;6.82;100.00;97871.94;4999507;28;20035;-82
2021/12/01 06:57:37;;;;;;;3.38;1.10;;;;;;;6.73;100.00;97864.63;5000210;28;20126;-80
2021/12/01 07:00:06;;;;;;;3.03;1.30;;;;;;;6.64;100.00;97850.38;5002798;28;20030;-78
2021/12/01 07:02:32;;;;;;;3.28;1.33;;;;;;;6.61;100.00;97845.31;5002193;28;20038;-80
2021/12/01 07:04:57;;;;;;;3.30;1.15;;;;;;;6.54;100.00;97848.31;5002578;28;20042;-78
2021/12/01 07:07:23;;;;;;;2.42;1.00;;;;;;;6.49;100.00;97853.75;5003609;28;20034;-79
2021/12/01 07:09:50;;;;;;;3.30;1.27;;;;;;;6.50;100.00;97832.03;5004655;28;20026;-80
2021/12/01 07:12:16;;;;;;;3.63;1.25;;;;;;;6.44;100.00;97836.72;5005924;28;20045;-79
2021/12/01 07:14:41;;;;;;;2.92;0.90;;;;;;;6.46;100.00;97834.88;5004077;28;20168;-79
2021/12/01 07:17:07;;;;;;;2.97;1.17;;;;;;;6.47;100.00;97826.16;5003674;28;20092;-78
2021/12/01 07:19:33;;;;;;;2.85;1.00;;;;;;;6.43;100.00;97827.22;5000847;28;20034;-78
2021/12/01 07:21:58;;;;;;;2.03;0.65;;;;;;;6.45;100.00;97823.63;5000989;28;20038;-79
2021/12/01 07:24:34;;;;;;;;;;;;;;;;;;;;;
2021/12/01 07:26:59;;;;;;;2.97;1.23;;;;;;;6.46;100.00;97811.47;5001254;28;20117;-77
2021/12/01 07:29:25;;;;;;;2.65;0.90;;;;;;;6.51;100.00;97804.28;4993437;28;20034;-76
2021/12/01 07:31:51;;;;;;;1.95;0.82;;;;;;;6.51;100.00;97792.13;4995037;28;20041;-76
2021/12/01 07:34:16;;;;;;;2.05;0.90;;;;;;;6.69;100.00;97798.13;4995093;28;20030;-78
2021/12/01 07:36:42;;;;;;;2.60;1.00;;;;;;;6.76;100.00;97796.88;4962731;28;20049;-77
2021/12/01 07:39:07;;;;;;;3.28;0.80;;;;;;;6.81;100.00;97797.47;5000694;28;20050;-79
2021/12/01 07:41:32;;;;;;;1.53;0.70;;;;;;;6.93;100.00;97789.03;5000224;28;20134;-78
2021/12/01 07:43:58;;;;;;;1.60;0.60;;;;;;;7.04;100.00;97758.06;4997739;28;20269;-77
2021/12/01 07:46:23;;;;;;;1.20;0.40;;;;;;;7.10;100.00;97777.69;4997204;28;20040;-78
2021/12/01 07:48:49;;;;;;;1.67;0.70;;;;;;;7.12;100.00;97768.03;4998105;28;20389;-78
2021/12/01 07:51:15;;;;;;;1.95;0.65;;;;;;;7.18;100.00;97765.09;5000372;28;20038;-79
2021/12/01 07:53:41;;;;;;;1.23;0.47;;;;;;;7.25;100.00;97784.66;4999413;28;20034;-78
2021/12/01 07:56:07;;;;;;;1.25;0.50;;;;;;;7.27;100.00;97751.59;4997520;28;20069;-79
2021/12/01 07:58:33;;;;;;;1.13;0.60;;;;;;;7.35;100.00;97744.19;4998742;28;20038;-77
2021/12/01 08:00:58;;;;;;;1.35;0.57;;;;;;;7.37;100.00;97764.94;4997892;28;20366;-78
2021/12/01 08:03:23;;;;;;;1.13;0.43;;;;;;;7.38;100.00;97746.63;4998641;28;20084;-78
2021/12/01 08:05:49;;;;;;;1.00;0.40;;;;;;;7.35;100.00;97741.59;4998882;28;20528;-79
2021/12/01 08:08:15;;;;;;;0.82;0.40;;;;;;;7.30;100.00;97763.59;5001345;28;20035;-79
2021/12/01 08:10:41;;;;;;;1.15;0.52;;;;;;;7.32;100.00;97756.53;4999696;28;20041;-79
2021/12/01 08:13:07;;;;;;;1.50;0.63;;;;;;;7.30;100.00;97732.38;4997683;28;20026;-78
2021/12/01 08:15:32;;;;;;;1.10;0.40;;;;;;;7.29;100.00;97759.31;4997768;28;20061;-80
2021/12/01 08:17:59;;;;;;;1.30;0.50;;;;;;;7.34;100.00;97762.50;4997439;28;20169;-76
2021/12/01 08:20:25;;;;;;;1.13;0.40;;;;;;;7.30;100.00;97772.22;4996027;28;20707;-78
2021/12/01 08:22:50;;;;;;;0.57;0.30;;;;;;;7.22;100.00;97747.56;4997379;28;20038;-79
2021/12/01 08:25:16;;;;;;;1.38;0.63;;;;;;;7.23;100.00;97703.25;4997926;28;20359;-78
2021/12/01 08:27:41;;;;;;;0.57;0.30;;;;;;;7.19;100.00;97748.56;4999914;28;20109;-79
2021/12/01 08:30:08;;;;;;;1.88;0.60;;;;;;;7.18;100.00;97730.44;5000217;28;20061;-79
2021/12/01 08:32:33;;;;;;;0.47;0.28;;;;;;;7.21;100.00;97714.66;4996698;28;20037;-76
2021/12/01 08:34:59;;;;;;;0.95;0.50;;;;;;;7.19;100.00;97739.94;5009246;28;20034;-77
2021/12/01 08:37:24;;;;;;;1.38;0.63;;;;;;;7.20;100.00;97732.03;4993820;28;20038;-77
2021/12/01 08:39:50;;;;;;;0.90;0.40;;;;;;;7.20;100.00;97718.19;4994247;28;20034;-77
2021/12/01 08:42:18;;;;;;;0.73;0.30;;;;;;;7.21;100.00;97733.72;4993245;28;20121;-77
2021/12/01 08:44:47;;;;;;;0.95;0.30;;;;;;;7.21;100.00;97735.47;4992976;28;20034;-77
2021/12/01 08:47:17;;;;;;;1.48;0.45;;;;;;;7.24;100.00;97725.75;5010097;28;20032;-77
2021/12/01 08:49:43;;;;;;;0.95;0.40;;;;;;;7.31;100.00;97719.28;4995904;28;20113;-77
2021/12/01 08:52:09;;;;;;;0.57;0.30;;;;;;;7.31;100.00;97703.66;4996198;28;20143;-77
2021/12/01 08:54:35;;;;;;;0.70;0.30;;;;;;;7.33;100.00;97725.22;4997227;28;20476;-78
2021/12/01 08:57:01;;;;;;;1.52;0.57;;;;;;;7.37;100.00;97712.88;4995081;28;20039;-78
2021/12/01 08:59:26;;;;;;;0.95;0.40;;;;;;;7.36;100.00;97711.22;4994498;28;20384;-76
2021/12/01 09:01:52;;;;;;;1.52;0.45;;;;;;;7.37;100.00;97690.31;4992972;28;20030;-76
2021/12/01 09:04:18;;;;;;;1.48;0.50;;;;;;;7.41;100.00;97706.59;4992711;28;20034;-78
2021/12/01 09:06:43;;;;;;;1.42;0.57;;;;;;;7.43;100.00;97709.06;4993286;28;20027;-77
2021/12/01 09:09:09;;;;;;;2.10;0.47;;;;;;;7.47;100.00;97674.97;4993577;28;20440;-77
2021/12/01 09:11:34;;;;;;;0.70;0.30;;;;;;;7.47;100.00;97667.16;4992158;28;20301;-76
2021/12/01 09:14:00;;;;;;;2.00;0.50;;;;;;;7.45;100.00;97686.41;4994100;28;20031;-77
2021/12/01 09:16:25;;;;;;;0.90;0.43;;;;;;;7.48;100.00;97699.22;4993792;28;20385;-77
2021/12/01 09:18:51;;;;;;;0.68;0.35;;;;;;;7.50;100.00;97693.03;5008282;28;20266;-76
2021/12/01 09:21:18;;;;;;;0.82;0.30;;;;;;;7.48;100.00;97700.06;4993149;28;20165;-77
2021/12/01 09:23:44;;;;;;;0.88;0.30;;;;;;;7.51;100.00;97686.88;4993986;28;20035;-77
2021/12/01 09:26:09;;;;;;;0.47;0.28;;;;;;;7.54;100.00;97672.84;4994370;28;20035;-77
2021/12/01 09:28:35;;;;;;;1.55;0.50;;;;;;;7.58;100.00;97689.97;4996084;28;20076;-77
2021/12/01 09:31:00;;;;;;;0.22;0.20;;;;;;;7.62;100.00;97655.88;4997412;28;20465;-76
2021/12/01 09:33:28;;;;;;;1.65;0.30;;;;;;;7.58;100.00;97677.81;4954966;28;20038;-77
2021/12/01 09:35:54;;;;;;;1.00;0.40;;;;;;;7.58;100.00;97672.59;4998095;28;20030;-77
2021/12/01 09:38:20;;;;;;;0.73;0.10;;;;;;;7.56;100.00;97681.41;4995308;28;20064;-77
2021/12/01 09:40:48;;;;;;;;;;;;;;;7.51;100.00;97645.25;4997540;28;20038;-77
2021/12/01 09:43:15;;;;;;;0.45;0.30;;;;;;;7.49;100.00;97665.31;4997184;28;19941;-76
2021/12/01 09:45:41;;;;;;;0.17;0.17;;;;;;;7.47;100.00;97651.56;4995685;28;20380;-77
2021/12/01 09:48:06;;;;;;;0.57;0.30;;;;;;;7.46;100.00;97649.88;4996959;28;20030;-77
2021/12/01 09:50:34;;;;;;;2.75;0.30;;;;;;;7.45;100.00;97648.19;4999326;28;20365;-77
2021/12/01 09:53:00;;;;;;;1.05;0.60;;;;;;;7.45;100.00;97653.41;4998271;28;20042;-78
2021/12/01 09:55:25;;;;;;;0.82;0.22;;;;;;;7.41;100.00;97648.50;4996466;28;20355;-78
2021/12/01 09:57:58;;;;;;;0.10;0.10;;;;;;;7.40;100.00;97639.84;4998604;28;20046;-77
2021/12/01 10:00:23;;;;;;;0.52;0.20;;;;;;;7.33;100.00;97647.16;4999943;28;20030;-78
2021/12/01 10:02:48;;;;;;;0.85;0.55;;;;;;;7.34;100.00;97645.41;4998431;28;20038;-78
2021/12/01 10:05:45;;;;;;;0.50;0.20;;;;;;;7.41;100.00;97657.13;4997086;28;20054;-77
2021/12/01 10:08:20;;;;;;;0.77;0.30;;;;;;;7.37;100.00;97634.81;4997229;28;20288;-77
2021/12/01 10:10:46;;;;;;;0.75;0.40;;;;;;;7.36;100.00;97627.94;4998305;28;20033;-77
2021/12/01 10:13:11;;;;;;;1.05;0.32;;;;;;;7.35;100.00;97634.91;4998292;28;20034;-76
2021/12/01 10:15:36;;;;;;;0.70;0.40;;;;;;;7.29;100.00;97613.59;4997910;28;20318;-77
2021/12/01 10:18:14;;;;;;;2.28;0.30;;;;;;;7.32;100.00;97621.25;4995940;28;20037;-77
2021/12/01 10:20:40;;;;;;;0.52;0.20;;;;;;;7.33;100.00;97621.16;4997535;28;20070;-78
2021/12/01 10:23:11;;;;;;;0.10;0.10;;;;;;;7.32;100.00;97622.06;4997050;28;20030;-77
2021/12/01 10:25:37;;;;;;;0.13;0.13;;;;;;;7.35;100.00;97592.44;4997473;28;20030;-77
2021/12/01 10:28:03;;;;;;;0.57;0.30;;;;;;;7.37;100.00;97606.19;4996069;28;20410;-77
2021/12/01 10:30:44;;;;;;;0.32;0.20;;;;;;;7.40;100.00;97613.81;4997923;28;20034;-77
2021/12/01 10:33:12;;;;;;;0.38;0.17;;;;;;;7.39;100.00;97606.94;4997753;28;20088;-77
2021/12/01 10:35:39;;;;;;;0.82;0.40;;;;;;;7.41;100.00;97588.66;4997954;28;20038;-77
2021/12/01 10:38:07;;;;;;;1.17;0.40;;;;;;;7.48;100.00;97584.72;5013313;28;20047;-77
2021/12/01 10:40:34;;;;;;;0.70;0.40;;;;;;;7.41;100.00;97589.47;4997984;28;20395;-78
2021/12/01 10:43:10;;;;;;;0.47;0.30;;;;;;;7.40;100.00;97581.75;4997430;28;20038;-77
2021/12/01 10:45:42;;;;;;;1.08;0.68;;;;;;;7.36;100.00;97581.94;4997693;28;20035;-77
2021/12/01 10:48:11;;;;;;;2.83;0.32;;;;;;;7.42;100.00;97562.53;4997429;28;20073;-77
2021/12/01 10:50:40;;;;;;;0.57;0.30;;;;;;;7.42;100.00;97570.34;4996460;28;20377;-77
2021/12/01 10:53:10;;;;;;;1.33;0.43;;;;;;;7.39;100.00;97557.50;4996769;28;20104;-77
2021/12/01 10:55:42;;;;;;;1.00;0.35;;;;;;;7.42;100.00;97559.09;4998653;28;20030;-78
2021/12/01 10:58:08;;;;;;;1.05;0.50;;;;;;;7.48;100.00;97546.53;4995545;28;20147;-77
2021/12/01 11:00:43;;;;;;;0.70;0.22;;;;;;;7.48;100.00;97549.13;4995550;28;20511;-79
2021/12/01 11:03:17;;;;;;;0.57;0.35;;;;;;;7.50;100.00;97536.03;4995175;28;20048;-77
2021/12/01 11:05:45;;;;;;;1.63;0.60;;;;;;;7.51;100.00;97541.13;4996993;28;20034;-77
2021/12/01 11:08:12;;;;;;;0.98;0.30;;;;;;;7.52;100.00;97539.38;4996796;28;20030;-78
2021/12/01 11:10:38;;;;;;;0.80;0.30;;;;;;;7.56;100.00;97536.50;4996024;28;20125;-78
2021/12/01 11:13:05;;;;;;;0.60;0.30;;;;;;;7.55;100.00;97531.38;4996368;28;20116;-77
2021/12/01 11:15:35;;;;;;;0.68;0.38;;;;;;;7.52;100.00;97529.78;4996516;28;20035;-77
2021/12/01 11:18:01;;;;;;;1.08;0.43;;;;;;;7.51;100.00;97535.09;4994981;28;20041;-78
2021/12/01 11:20:34;;;;;;;0.38;0.30;;;;;;;7.48;100.00;97530.06;4996502;28;20035;-77
2021/12/01 11:23:10;;;;;;;0.90;0.40;;;;;;;7.44;100.00;97539.81;4997721;28;20030;-77
2021/12/01 11:25:37;;;;;;;1.08;0.47;;;;;;;7.49;100.00;97531.75;4996259;28;20037;-77
2021/12/01 11:28:08;;;;;;;1.45;0.60;;;;;;;7.50;100.00;97525.63;4996126;28;20062;-78
2021/12/01 11:30:35;;;;;;;3.97;0.60;;;;;;;7.50;100.00;97529.06;4948285;28;20482;-78
2021/12/01 11:33:01;;;;;;;1.08;0.52;;;;;;;7.48;100.00;97532.69;4995134;28;20516;-78
2021/12/01 11:35:27;;;;;;;0.65;0.40;;;;;;;7.48;100.00;97509.25;4994563;28;20030;-78
2021/12/01 11:37:56;;;;;;;;;;;;;;;7.53;100.00;97515.84;4996798;28;20417;-78
2021/12/01 11:40:23;;;;;;;1.33;0.60;;;;;;;7.53;100.00;97520.22;4995720;28;20364;-77